Time;durP1;ratioP1;P1;durP2;ratioP2;P2;SDS_P1;SDS_P2;PMS_P1;PMS_P2;Temp;Humidity;BMP_temperature;BMP_pressure;BME280_temperature;BME280_humidity;BME280_pressure;Samples;Min_cycle;Max_cycle;Signal;HPM_P1;HPM_P2
2023/05/18 00:00:09;;;;;;;1.70;1.08;;;;;;;;;;5022976;28;20559;-40
2023/05/18 00:02:35;;;;;;;2.85;1.30;;;;;;;;;;5020338;28;20045;-45
2023/05/18 00:05:00;;;;;;;1.50;1.08;;;;;;;;;;5019502;28;20390;-40
2023/05/18 00:07:28;;;;;;;1.38;1.10;;;;;;;;;;5014334;28;21745;-41
2023/05/18 00:09:54;;;;;;;1.50;1.30;;;;;;;;;;5021931;28;20108;-40
2023/05/18 00:12:19;;;;;;;1.63;1.20;;;;;;;;;;5021853;28;20124;-40
2023/05/18 00:14:45;;;;;;;1.40;1.17;;;;;;;;;;5020274;28;20033;-40
2023/05/18 00:17:10;;;;;;;0.88;0.88;;;;;;;;;;5024982;28;20551;-40
2023/05/18 00:19:36;;;;;;;1.08;1.05;;;;;;;;;;5020162;28;20026;-40
2023/05/18 00:22:01;;;;;;;1.40;1.23;;;;;;;;;;5021334;28;20135;-41
2023/05/18 00:24:27;;;;;;;1.67;1.08;;;;;;;;;;5022423;28;20538;-41
2023/05/18 00:26:52;;;;;;;1.27;1.17;;;;;;;;;;5020038;28;20102;-40
2023/05/18 00:29:17;;;;;;;1.95;1.02;;;;;;;;;;5022245;28;20469;-40
2023/05/18 00:31:44;;;;;;;1.35;1.20;;;;;;;;;;5023029;28;20046;-40
2023/05/18 00:34:12;;;;;;;3.88;1.33;;;;;;;;;;5021867;28;20045;-40
2023/05/18 00:36:38;;;;;;;7.40;1.10;;;;;;;;;;5020274;28;20038;-40
2023/05/18 00:39:05;;;;;;;1.50;1.08;;;;;;;;;;5024779;28;20062;-39
2023/05/18 00:41:31;;;;;;;2.95;1.30;;;;;;;;;;5027381;28;20159;-41
2023/05/18 00:43:57;;;;;;;1.30;1.17;;;;;;;;;;5023574;28;20115;-40
2023/05/18 00:46:24;;;;;;;3.13;1.20;;;;;;;;;;5026999;28;20037;-40
2023/05/18 00:48:51;;;;;;;3.38;1.25;;;;;;;;;;5023106;28;20103;-40
2023/05/18 00:51:20;;;;;;;1.20;1.10;;;;;;;;;;5026801;28;20061;-40
2023/05/18 00:53:46;;;;;;;4.93;1.13;;;;;;;;;;5025448;28;20038;-42
2023/05/18 00:56:11;;;;;;;1.20;1.10;;;;;;;;;;5024762;28;20492;-41
2023/05/18 00:58:41;;;;;;;1.27;1.23;;;;;;;;;;5024098;28;20712;-43
2023/05/18 01:01:08;;;;;;;0.80;0.80;;;;;;;;;;5023230;28;20044;-40
2023/05/18 01:03:37;;;;;;;1.35;1.25;;;;;;;;;;5027792;28;20034;-44
2023/05/18 01:06:06;;;;;;;1.83;1.30;;;;;;;;;;5023880;28;20041;-40
2023/05/18 01:08:33;;;;;;;1.55;1.38;;;;;;;;;;5022062;28;20022;-40
2023/05/18 01:11:13;;;;;;;1.27;1.17;;;;;;;;;;5021896;28;20413;-42
2023/05/18 01:14:10;;;;;;;4.50;1.90;;;;;;;;;;5027290;28;20033;-42
2023/05/18 01:16:43;;;;;;;1.75;1.30;;;;;;;;;;5025896;28;20065;-40
2023/05/18 01:19:40;;;;;;;1.50;1.30;;;;;;;;;;5022971;28;20171;-39
2023/05/18 01:22:43;;;;;;;5.10;1.35;;;;;;;;;;5022986;28;20042;-43
2023/05/18 01:25:47;;;;;;;2.25;1.17;;;;;;;;;;5022123;28;20033;-42
2023/05/18 01:28:16;;;;;;;3.28;1.45;;;;;;;;;;4963363;28;20050;-40
2023/05/18 01:30:41;;;;;;;4.90;1.20;;;;;;;;;;4963125;28;20031;-45
2023/05/18 01:33:08;;;;;;;1.80;1.30;;;;;;;;;;4963733;28;20057;-43
2023/05/18 01:35:35;;;;;;;1.75;1.30;;;;;;;;;;4949268;28;20038;-40
2023/05/18 01:38:01;;;;;;;1.45;1.20;;;;;;;;;;4965073;28;20039;-41
2023/05/18 01:40:33;;;;;;;2.53;1.55;;;;;;;;;;4961750;28;20072;-40
2023/05/18 01:43:04;;;;;;;2.35;1.40;;;;;;;;;;4963942;28;20089;-42
2023/05/18 01:45:31;;;;;;;1.80;1.40;;;;;;;;;;4961848;28;20038;-44
2023/05/18 01:47:59;;;;;;;1.30;1.20;;;;;;;;;;4962785;28;20068;-40
2023/05/18 01:50:36;;;;;;;3.90;1.35;;;;;;;;;;4965207;28;20444;-40
2023/05/18 01:53:46;;;;;;;5.95;1.55;;;;;;;;;;4967951;28;20109;-44
2023/05/18 01:56:13;;;;;;;3.38;1.70;;;;;;;;;;4911660;29;20505;-40
2023/05/18 01:58:39;;;;;;;5.10;1.80;;;;;;;;;;4911467;29;20047;-42
2023/05/18 02:01:04;;;;;;;1.73;1.23;;;;;;;;;;4907236;29;20405;-40
2023/05/18 02:03:31;;;;;;;2.53;1.63;;;;;;;;;;4907103;29;20040;-40
2023/05/18 02:05:56;;;;;;;4.63;1.40;;;;;;;;;;4943425;28;20054;-40
2023/05/18 02:08:22;;;;;;;2.58;1.20;;;;;;;;;;4945981;28;20043;-40
2023/05/18 02:10:47;;;;;;;4.07;1.42;;;;;;;;;;4946756;28;20039;-40
2023/05/18 02:13:12;;;;;;;3.60;1.30;;;;;;;;;;4947974;28;20046;-42
2023/05/18 02:15:38;;;;;;;4.80;1.33;;;;;;;;;;4947706;28;20047;-40
2023/05/18 02:18:03;;;;;;;2.22;1.35;;;;;;;;;;4943492;28;20059;-41
2023/05/18 02:20:32;;;;;;;3.15;1.58;;;;;;;;;;4944227;28;20042;-40
2023/05/18 02:22:58;;;;;;;1.30;1.20;;;;;;;;;;4930963;29;20058;-40
2023/05/18 02:25:24;;;;;;;3.58;1.25;;;;;;;;;;4944595;28;20097;-41
2023/05/18 02:27:49;;;;;;;4.68;1.60;;;;;;;;;;4946758;28;20472;-40
2023/05/18 02:30:14;;;;;;;3.72;1.38;;;;;;;;;;4984302;28;20060;-42
2023/05/18 02:32:41;;;;;;;6.45;1.77;;;;;;;;;;5021450;28;20033;-40
2023/05/18 02:35:07;;;;;;;3.38;1.35;;;;;;;;;;5025111;28;20557;-44
2023/05/18 02:37:38;;;;;;;2.10;1.45;;;;;;;;;;5022981;28;20045;-42
2023/05/18 02:40:05;;;;;;;1.08;1.05;;;;;;;;;;5025556;28;20033;-44
2023/05/18 02:42:30;;;;;;;3.83;1.20;;;;;;;;;;5021520;28;20183;-41
2023/05/18 02:44:56;;;;;;;3.90;1.48;;;;;;;;;;5020322;28;20029;-41
2023/05/18 02:47:21;;;;;;;1.33;1.23;;;;;;;;;;5021427;28;20053;-41
2023/05/18 02:49:46;;;;;;;1.85;1.45;;;;;;;;;;5022423;28;20021;-44
2023/05/18 02:52:12;;;;;;;1.20;1.10;;;;;;;;;;5021317;28;20062;-41
2023/05/18 02:54:37;;;;;;;4.00;1.73;;;;;;;;;;5025211;28;20483;-40
2023/05/18 02:57:03;;;;;;;2.60;1.30;;;;;;;;;;5023250;28;20052;-40
2023/05/18 02:59:28;;;;;;;4.53;1.60;;;;;;;;;;5022866;28;20034;-43
2023/05/18 03:01:53;;;;;;;1.50;1.30;;;;;;;;;;5020621;28;20041;-42
2023/05/18 03:04:20;;;;;;;1.25;1.13;;;;;;;;;;5018429;28;20026;-41
2023/05/18 03:06:46;;;;;;;7.32;1.27;;;;;;;;;;5020754;28;20034;-40
2023/05/18 03:09:11;;;;;;;1.35;1.25;;;;;;;;;;5020423;28;20037;-42
2023/05/18 03:11:37;;;;;;;1.75;1.20;;;;;;;;;;5022733;28;20452;-40
2023/05/18 03:14:02;;;;;;;4.80;1.70;;;;;;;;;;5024181;28;20061;-43
2023/05/18 03:16:27;;;;;;;8.55;1.48;;;;;;;;;;5022589;28;20422;-42
2023/05/18 03:18:54;;;;;;;2.28;1.23;;;;;;;;;;5023469;28;20030;-41
2023/05/18 03:21:20;;;;;;;4.82;1.50;;;;;;;;;;5023371;28;20034;-40
2023/05/18 03:23:46;;;;;;;3.58;1.58;;;;;;;;;;5023754;28;20036;-40
2023/05/18 03:26:11;;;;;;;1.58;1.48;;;;;;;;;;5021541;28;20041;-40
2023/05/18 03:28:40;;;;;;;3.08;1.60;;;;;;;;;;5020276;28;20395;-43
2023/05/18 03:31:05;;;;;;;2.58;1.55;;;;;;;;;;5019323;28;20045;-40
2023/05/18 03:33:31;;;;;;;2.38;1.50;;;;;;;;;;5020722;28;20036;-41
2023/05/18 03:36:01;;;;;;;2.92;1.50;;;;;;;;;;5017393;28;20045;-40
2023/05/18 03:38:26;;;;;;;4.82;1.60;;;;;;;;;;5020715;28;20085;-43
2023/05/18 03:40:52;;;;;;;2.15;1.38;;;;;;;;;;5020618;28;20050;-44
2023/05/18 03:43:17;;;;;;;4.22;1.20;;;;;;;;;;5024166;28;20022;-41
2023/05/18 03:45:42;;;;;;;2.45;1.45;;;;;;;;;;5018784;28;20567;-41
2023/05/18 03:48:08;;;;;;;6.68;1.27;;;;;;;;;;5021056;28;20033;-40
2023/05/18 03:50:33;;;;;;;2.17;1.60;;;;;;;;;;5022779;28;20025;-44
2023/05/18 03:52:58;;;;;;;3.15;1.42;;;;;;;;;;5023949;28;20040;-39
2023/05/18 03:55:25;;;;;;;4.30;1.67;;;;;;;;;;5021974;28;20786;-40
2023/05/18 03:57:50;;;;;;;2.13;1.33;;;;;;;;;;5019920;28;20045;-41
2023/05/18 04:00:16;;;;;;;2.47;1.25;;;;;;;;;;5022187;28;20076;-46
2023/05/18 04:02:41;;;;;;;5.75;1.50;;;;;;;;;;5019973;28;20095;-41
2023/05/18 04:05:07;;;;;;;4.40;1.65;;;;;;;;;;5021983;28;20048;-42
2023/05/18 04:07:33;;;;;;;1.40;1.30;;;;;;;;;;5020704;28;20049;-40
2023/05/18 04:09:58;;;;;;;2.97;1.38;;;;;;;;;;5020654;28;20435;-39
2023/05/18 04:12:24;;;;;;;1.77;1.40;;;;;;;;;;5021478;28;20112;-47
2023/05/18 04:14:49;;;;;;;3.78;1.30;;;;;;;;;;5023262;28;20037;-41
2023/05/18 04:17:16;;;;;;;1.65;1.30;;;;;;;;;;5022551;28;20076;-40
2023/05/18 04:19:41;;;;;;;3.47;1.40;;;;;;;;;;5021901;28;20457;-40
2023/05/18 04:22:07;;;;;;;1.38;1.27;;;;;;;;;;5022284;28;20080;-39
2023/05/18 04:24:33;;;;;;;3.08;1.40;;;;;;;;;;5019901;28;20117;-41
2023/05/18 04:26:59;;;;;;;4.72;1.70;;;;;;;;;;5022162;28;20037;-39
2023/05/18 04:29:26;;;;;;;2.45;1.50;;;;;;;;;;5018198;28;20072;-40
2023/05/18 04:31:52;;;;;;;2.92;1.77;;;;;;;;;;5022120;28;20088;-40
2023/05/18 04:34:18;;;;;;;1.40;1.30;;;;;;;;;;5020967;28;20061;-39
2023/05/18 04:36:43;;;;;;;1.38;1.15;;;;;;;;;;5026440;28;20048;-44
2023/05/18 04:39:10;;;;;;;1.85;1.67;;;;;;;;;;5021961;28;20025;-40
2023/05/18 04:41:36;;;;;;;3.08;1.42;;;;;;;;;;5021531;28;20042;-39
2023/05/18 04:44:02;;;;;;;1.73;1.20;;;;;;;;;;5019236;28;20040;-39
2023/05/18 04:46:28;;;;;;;1.25;1.20;;;;;;;;;;5020530;28;20044;-43
2023/05/18 04:48:56;;;;;;;5.95;1.35;;;;;;;;;;5021554;28;20034;-41
2023/05/18 04:51:22;;;;;;;3.20;1.33;;;;;;;;;;5021872;28;20045;-41
2023/05/18 04:53:51;;;;;;;2.90;1.33;;;;;;;;;;5023654;28;20025;-40
2023/05/18 04:56:19;;;;;;;1.60;1.20;;;;;;;;;;5020405;28;20042;-41
2023/05/18 04:58:46;;;;;;;2.63;1.38;;;;;;;;;;5020381;28;20017;-44
2023/05/18 05:01:14;;;;;;;1.63;1.30;;;;;;;;;;5020223;28;20049;-41
2023/05/18 05:03:40;;;;;;;1.95;1.33;;;;;;;;;;5020109;28;20421;-42
2023/05/18 05:06:06;;;;;;;3.00;1.42;;;;;;;;;;5021240;28;20690;-40
2023/05/18 05:08:31;;;;;;;2.10;1.20;;;;;;;;;;5020443;28;20048;-41
2023/05/18 05:10:56;;;;;;;1.73;1.40;;;;;;;;;;5021149;28;20764;-40
2023/05/18 05:13:22;;;;;;;2.20;1.30;;;;;;;;;;5020207;28;20068;-40
2023/05/18 05:15:47;;;;;;;1.42;1.20;;;;;;;;;;5020526;28;20140;-41
2023/05/18 05:18:12;;;;;;;4.90;1.40;;;;;;;;;;5021618;28;20449;-42
2023/05/18 05:20:38;;;;;;;2.47;1.02;;;;;;;;;;5021089;28;20063;-42
2023/05/18 05:23:03;;;;;;;3.42;1.40;;;;;;;;;;5022994;28;20021;-40
2023/05/18 05:25:28;;;;;;;1.38;1.27;;;;;;;;;;5024704;28;20489;-40
2023/05/18 05:27:54;;;;;;;2.38;1.20;;;;;;;;;;5020678;28;20438;-40
2023/05/18 05:30:19;;;;;;;2.80;1.67;;;;;;;;;;5023611;28;20147;-40
2023/05/18 05:32:45;;;;;;;3.85;1.25;;;;;;;;;;5024507;28;20091;-40
2023/05/18 05:35:10;;;;;;;4.00;1.50;;;;;;;;;;5025527;28;20025;-42
2023/05/18 05:37:35;;;;;;;2.63;1.30;;;;;;;;;;5024017;28;20084;-41
2023/05/18 05:40:02;;;;;;;3.17;1.50;;;;;;;;;;5022928;28;20116;-40
2023/05/18 05:42:28;;;;;;;6.53;1.63;;;;;;;;;;5023954;28;20365;-42
2023/05/18 05:44:54;;;;;;;1.38;1.27;;;;;;;;;;5023915;28;20075;-43
2023/05/18 05:47:19;;;;;;;2.80;1.60;;;;;;;;;;5024883;28;20494;-44
2023/05/18 05:49:44;;;;;;;1.58;1.48;;;;;;;;;;5024479;28;20025;-41
2023/05/18 05:52:10;;;;;;;3.58;1.63;;;;;;;;;;5022110;28;20410;-44
2023/05/18 05:54:35;;;;;;;7.53;1.70;;;;;;;;;;5022031;28;20434;-43
2023/05/18 05:57:02;;;;;;;5.88;1.70;;;;;;;;;;5023483;28;20046;-42
2023/05/18 05:59:28;;;;;;;2.95;1.50;;;;;;;;;;5024123;28;20388;-40
2023/05/18 06:01:53;;;;;;;2.60;1.20;;;;;;;;;;5018789;28;20125;-43
2023/05/18 06:04:19;;;;;;;5.13;1.30;;;;;;;;;;5019941;28;20041;-43
2023/05/18 06:06:46;;;;;;;2.15;1.40;;;;;;;;;;5023157;28;20041;-40
2023/05/18 06:09:12;;;;;;;1.83;1.40;;;;;;;;;;5021208;28;20041;-41
2023/05/18 06:11:38;;;;;;;3.13;1.40;;;;;;;;;;5024313;28;20041;-41
2023/05/18 06:14:03;;;;;;;1.73;1.38;;;;;;;;;;5023141;28;20741;-43
2023/05/18 06:16:29;;;;;;;1.35;1.25;;;;;;;;;;5024397;28;20532;-44
2023/05/18 06:18:54;;;;;;;2.75;1.35;;;;;;;;;;5021927;28;20049;-40
2023/05/18 06:21:20;;;;;;;2.20;1.30;;;;;;;;;;5025528;28;20445;-40
2023/05/18 06:23:45;;;;;;;1.75;1.20;;;;;;;;;;5021740;28;20045;-40
2023/05/18 06:26:11;;;;;;;1.30;1.20;;;;;;;;;;5023680;28;20037;-40
2023/05/18 06:28:36;;;;;;;1.92;1.45;;;;;;;;;;5026038;28;20018;-44
2023/05/18 06:31:01;;;;;;;6.05;1.40;;;;;;;;;;5020323;28;20038;-40
2023/05/18 06:33:27;;;;;;;5.03;1.30;;;;;;;;;;5025689;28;20033;-46
2023/05/18 06:35:52;;;;;;;3.55;1.50;;;;;;;;;;5023662;28;20136;-44
2023/05/18 06:38:18;;;;;;;1.20;1.10;;;;;;;;;;5024090;28;20048;-40
2023/05/18 06:40:44;;;;;;;1.23;1.10;;;;;;;;;;5025855;28;20033;-40
2023/05/18 06:43:09;;;;;;;2.47;1.73;;;;;;;;;;5022264;28;20034;-41
2023/05/18 06:45:35;;;;;;;2.08;1.20;;;;;;;;;;5020728;28;20041;-40
2023/05/18 06:48:00;;;;;;;2.72;1.52;;;;;;;;;;5022251;28;20022;-42
2023/05/18 06:50:25;;;;;;;2.17;1.27;;;;;;;;;;5023541;28;20037;-41
2023/05/18 06:52:51;;;;;;;4.10;1.35;;;;;;;;;;5024158;28;20044;-44
2023/05/18 06:55:17;;;;;;;3.55;1.83;;;;;;;;;;5023916;28;20374;-41
2023/05/18 06:57:42;;;;;;;1.15;1.10;;;;;;;;;;5025012;28;20521;-48
2023/05/18 07:00:09;;;;;;;2.25;1.50;;;;;;;;;;5025236;28;20049;-40
2023/05/18 07:02:34;;;;;;;1.67;1.17;;;;;;;;;;5024087;28;20493;-44
2023/05/18 07:05:00;;;;;;;3.17;1.27;;;;;;;;;;5023341;28;20119;-43
2023/05/18 07:07:26;;;;;;;2.00;1.33;;;;;;;;;;5022243;28;20029;-47
2023/05/18 07:09:53;;;;;;;1.77;1.20;;;;;;;;;;5022389;28;20025;-40
2023/05/18 07:12:21;;;;;;;1.05;1.00;;;;;;;;;;5021249;28;20033;-48
2023/05/18 07:14:46;;;;;;;7.80;1.30;;;;;;;;;;5025060;28;20025;-41
2023/05/18 07:17:12;;;;;;;1.48;1.27;;;;;;;;;;5020466;28;20037;-42
2023/05/18 07:19:37;;;;;;;2.30;1.15;;;;;;;;;;5021217;28;20036;-44
2023/05/18 07:22:03;;;;;;;1.70;1.00;;;;;;;;;;5020802;28;20041;-44
2023/05/18 07:24:29;;;;;;;1.38;1.27;;;;;;;;;;5022306;28;20029;-46
2023/05/18 07:26:55;;;;;;;0.93;0.88;;;;;;;;;;5020210;28;20045;-43
2023/05/18 07:29:20;;;;;;;1.10;1.00;;;;;;;;;;5022500;28;20029;-40
2023/05/18 07:31:46;;;;;;;0.82;0.80;;;;;;;;;;5022126;28;20107;-40
2023/05/18 07:34:11;;;;;;;1.25;1.10;;;;;;;;;;5020404;28;20053;-43
2023/05/18 07:36:36;;;;;;;2.38;1.20;;;;;;;;;;5021570;28;20037;-44
2023/05/18 07:39:02;;;;;;;2.00;1.20;;;;;;;;;;5021618;28;20113;-45
2023/05/18 07:41:27;;;;;;;3.53;0.90;;;;;;;;;;5020674;28;20372;-41
2023/05/18 07:43:53;;;;;;;1.23;0.90;;;;;;;;;;5021508;28;20052;-48
2023/05/18 07:46:18;;;;;;;1.35;1.25;;;;;;;;;;5019974;28;20380;-42
2023/05/18 07:48:45;;;;;;;0.80;0.80;;;;;;;;;;5020295;28;20035;-40
2023/05/18 07:51:11;;;;;;;2.50;0.98;;;;;;;;;;5017132;28;20107;-44
2023/05/18 07:53:36;;;;;;;1.85;1.10;;;;;;;;;;5018676;28;20032;-40
2023/05/18 07:56:03;;;;;;;2.38;1.58;;;;;;;;;;5023720;28;20041;-46
2023/05/18 07:58:28;;;;;;;2.20;1.08;;;;;;;;;;5020117;28;20056;-43
2023/05/18 08:00:53;;;;;;;1.48;1.30;;;;;;;;;;5015709;28;20508;-46
2023/05/18 08:03:20;;;;;;;1.27;1.02;;;;;;;;;;5020985;28;20033;-40
2023/05/18 08:05:45;;;;;;;1.60;1.20;;;;;;;;;;5021134;28;20038;-46
2023/05/18 08:08:14;;;;;;;4.22;1.40;;;;;;;;;;5017020;28;20029;-41
2023/05/18 08:10:40;;;;;;;1.60;1.50;;;;;;;;;;5022524;28;20041;-40
2023/05/18 08:13:05;;;;;;;2.05;1.67;;;;;;;;;;5019385;28;20778;-43
2023/05/18 08:15:31;;;;;;;1.45;1.33;;;;;;;;;;5014835;28;20029;-45
2023/05/18 08:17:56;;;;;;;1.50;1.27;;;;;;;;;;5014945;28;20482;-44
2023/05/18 08:20:22;;;;;;;2.45;1.30;;;;;;;;;;5018188;28;20028;-42
2023/05/18 08:22:47;;;;;;;2.47;1.52;;;;;;;;;;5018596;28;20071;-43
2023/05/18 08:25:13;;;;;;;2.10;1.63;;;;;;;;;;5018159;28;20053;-44
2023/05/18 08:27:38;;;;;;;2.97;1.50;;;;;;;;;;5018854;28;20036;-40
2023/05/18 08:30:04;;;;;;;1.83;1.60;;;;;;;;;;5018182;28;20753;-42
2023/05/18 08:32:30;;;;;;;1.33;1.30;;;;;;;;;;5019925;28;20124;-41
2023/05/18 08:34:56;;;;;;;2.65;1.65;;;;;;;;;;5022497;28;20100;-41
2023/05/18 08:37:27;;;;;;;1.35;1.20;;;;;;;;;;5018154;28;20069;-44
2023/05/18 08:39:53;;;;;;;2.60;1.80;;;;;;;;;;5018701;28;20025;-43
2023/05/18 08:42:24;;;;;;;2.22;1.88;;;;;;;;;;5018512;28;20106;-43
2023/05/18 08:45:01;;;;;;;2.08;1.38;;;;;;;;;;5018254;28;20676;-42
2023/05/18 08:47:28;;;;;;;1.98;1.48;;;;;;;;;;5019876;28;20082;-43
2023/05/18 08:49:56;;;;;;;1.83;1.20;;;;;;;;;;5020791;28;20026;-46
2023/05/18 08:52:26;;;;;;;1.60;1.15;;;;;;;;;;5019931;28;20518;-40
2023/05/18 08:54:53;;;;;;;1.55;1.45;;;;;;;;;;5017409;28;20022;-43
2023/05/18 08:57:21;;;;;;;2.67;1.20;;;;;;;;;;5018197;28;20046;-44
2023/05/18 08:59:48;;;;;;;2.58;0.90;;;;;;;;;;5020262;28;20061;-47
2023/05/18 09:02:14;;;;;;;1.48;1.00;;;;;;;;;;5020139;28;20056;-44
2023/05/18 09:04:41;;;;;;;1.23;1.02;;;;;;;;;;5017037;28;20029;-41
2023/05/18 09:07:09;;;;;;;1.65;0.63;;;;;;;;;;5019126;28;20743;-41
2023/05/18 09:09:34;;;;;;;2.92;0.95;;;;;;;;;;5020048;28;20382;-42
2023/05/18 09:12:01;;;;;;;7.57;1.40;;;;;;;;;;5021605;28;20049;-45
2023/05/18 09:14:27;;;;;;;2.80;1.20;;;;;;;;;;5025883;28;20025;-44
2023/05/18 09:16:53;;;;;;;0.90;0.90;;;;;;;;;;5022022;28;20042;-47
2023/05/18 09:19:18;;;;;;;1.20;1.20;;;;;;;;;;5021869;28;20017;-44
2023/05/18 09:21:45;;;;;;;1.35;1.00;;;;;;;;;;5024519;28;20042;-49
2023/05/18 09:24:10;;;;;;;5.50;1.33;;;;;;;;;;5023298;28;20029;-44
2023/05/18 09:26:37;;;;;;;2.60;1.30;;;;;;;;;;5022135;28;20034;-40
2023/05/18 09:29:15;;;;;;;2.92;1.42;;;;;;;;;;5024517;28;20139;-40
2023/05/18 09:31:41;;;;;;;1.67;1.58;;;;;;;;;;5023577;28;20430;-40
2023/05/18 09:34:06;;;;;;;3.95;1.60;;;;;;;;;;5023833;28;20033;-39
2023/05/18 09:36:33;;;;;;;1.58;1.20;;;;;;;;;;5024235;28;20037;-41
2023/05/18 09:38:58;;;;;;;2.20;2.00;;;;;;;;;;5022878;28;20030;-42
2023/05/18 09:41:26;;;;;;;5.43;1.48;;;;;;;;;;5024732;28;20083;-39
2023/05/18 09:43:51;;;;;;;1.65;1.55;;;;;;;;;;5025960;28;20040;-43
2023/05/18 09:46:19;;;;;;;3.60;1.60;;;;;;;;;;5025925;28;20038;-44
2023/05/18 09:48:47;;;;;;;2.03;1.35;;;;;;;;;;5022043;28;20387;-39
2023/05/18 09:51:16;;;;;;;3.47;1.50;;;;;;;;;;5023232;28;20030;-43
2023/05/18 09:53:47;;;;;;;5.05;2.20;;;;;;;;;;5021734;28;20493;-40
2023/05/18 09:56:16;;;;;;;4.03;1.50;;;;;;;;;;5024673;28;20057;-40
2023/05/18 09:58:42;;;;;;;2.95;2.00;;;;;;;;;;5023782;28;20021;-41
2023/05/18 10:01:07;;;;;;;1.30;1.30;;;;;;;;;;5022410;28;20053;-40
2023/05/18 10:03:37;;;;;;;2.72;1.50;;;;;;;;;;5018826;28;20034;-40
2023/05/18 10:06:04;;;;;;;1.95;1.50;;;;;;;;;;5022230;28;20398;-39
2023/05/18 10:08:30;;;;;;;1.70;1.60;;;;;;;;;;5021834;28;20695;-39
2023/05/18 10:10:56;;;;;;;4.07;1.50;;;;;;;;;;5023679;28;20518;-39
2023/05/18 10:13:25;;;;;;;1.48;1.35;;;;;;;;;;5019422;28;20080;-46
2023/05/18 10:15:53;;;;;;;1.45;1.30;;;;;;;;;;5021785;28;20033;-41
2023/05/18 10:18:23;;;;;;;1.52;1.40;;;;;;;;;;5020021;28;20029;-40
2023/05/18 10:20:51;;;;;;;3.72;1.60;;;;;;;;;;5020314;28;20129;-40
2023/05/18 10:23:19;;;;;;;2.13;1.90;;;;;;;;;;5023854;28;20045;-41
2023/05/18 10:25:45;;;;;;;2.33;2.13;;;;;;;;;;5025861;28;20052;-44
2023/05/18 10:28:16;;;;;;;2.97;1.77;;;;;;;;;;5023223;28;20036;-40
2023/05/18 10:30:42;;;;;;;2.63;1.60;;;;;;;;;;5021580;28;20559;-42
2023/05/18 10:33:09;;;;;;;2.70;1.92;;;;;;;;;;5018717;28;20166;-43
2023/05/18 10:35:37;;;;;;;1.90;1.60;;;;;;;;;;5022091;28;20038;-40
2023/05/18 10:38:04;;;;;;;2.45;1.92;;;;;;;;;;5024834;28;20072;-43
2023/05/18 10:40:31;;;;;;;1.70;1.60;;;;;;;;;;5023056;28;20139;-40
2023/05/18 10:42:59;;;;;;;1.95;1.80;;;;;;;;;;5021942;28;20517;-40
2023/05/18 10:45:25;;;;;;;2.53;1.92;;;;;;;;;;5019398;28;20478;-39
2023/05/18 10:47:53;;;;;;;2.65;2.00;;;;;;;;;;5022960;28;20062;-39
2023/05/18 10:50:21;;;;;;;3.17;2.00;;;;;;;;;;5017253;28;20055;-39
2023/05/18 10:52:47;;;;;;;3.22;1.88;;;;;;;;;;5023489;28;20060;-44
2023/05/18 10:55:14;;;;;;;2.65;1.92;;;;;;;;;;5020870;28;20045;-40
2023/05/18 10:57:50;;;;;;;3.65;2.00;;;;;;;;;;5020681;28;20143;-45
2023/05/18 11:00:16;;;;;;;5.88;1.88;;;;;;;;;;5022160;28;20041;-40
2023/05/18 11:02:41;;;;;;;5.43;2.38;;;;;;;;;;5021672;28;20060;-45
2023/05/18 11:05:08;;;;;;;1.80;1.63;;;;;;;;;;5021041;28;20589;-41
2023/05/18 11:07:34;;;;;;;3.78;1.42;;;;;;;;;;5018414;28;20387;-42
2023/05/18 11:10:07;;;;;;;1.50;1.40;;;;;;;;;;5021708;28;20049;-41
2023/05/18 11:12:36;;;;;;;2.45;1.58;;;;;;;;;;5020809;28;20053;-40
2023/05/18 11:15:02;;;;;;;3.22;1.40;;;;;;;;;;5021127;28;20029;-42
2023/05/18 11:17:28;;;;;;;1.67;1.40;;;;;;;;;;5021269;28;20034;-41
2023/05/18 11:20:11;;;;;;;1.70;1.42;;;;;;;;;;5021884;28;20033;-45
2023/05/18 11:22:58;;;;;;;1.50;1.40;;;;;;;;;;5020610;28;20735;-42
2023/05/18 11:25:24;;;;;;;1.85;1.73;;;;;;;;;;5017770;28;20497;-43
2023/05/18 11:27:51;;;;;;;5.43;3.50;;;;;;;;;;5024812;28;20038;-43
2023/05/18 11:30:26;;;;;;;2.28;1.80;;;;;;;;;;5022759;28;20056;-44
2023/05/18 11:32:51;;;;;;;1.63;1.40;;;;;;;;;;5022194;28;20033;-45
2023/05/18 11:35:22;;;;;;;2.53;1.27;;;;;;;;;;5021539;28;20088;-44
2023/05/18 11:37:48;;;;;;;4.00;1.80;;;;;;;;;;5020945;28;20052;-42
2023/05/18 11:40:43;;;;;;;2.65;1.38;;;;;;;;;;5019509;28;20029;-45
2023/05/18 11:43:18;;;;;;;1.63;1.23;;;;;;;;;;5014133;28;20053;-47
2023/05/18 11:45:55;;;;;;;1.98;1.40;;;;;;;;;;5019314;28;20038;-45
2023/05/18 11:48:22;;;;;;;1.67;1.20;;;;;;;;;;5017848;28;20029;-46
2023/05/18 11:50:48;;;;;;;0.93;0.93;;;;;;;;;;5019811;28;20045;-43
2023/05/18 11:53:17;;;;;;;2.30;1.25;;;;;;;;;;5023935;28;20029;-49
2023/05/18 11:55:42;;;;;;;1.48;1.38;;;;;;;;;;5020666;28;20061;-47
2023/05/18 11:58:09;;;;;;;3.28;1.30;;;;;;;;;;5018510;28;20029;-43
2023/05/18 12:00:36;;;;;;;1.48;1.30;;;;;;;;;;5020625;28;20801;-44
2023/05/18 12:03:02;;;;;;;1.65;1.35;;;;;;;;;;5018777;28;20426;-43
2023/05/18 12:05:33;;;;;;;1.50;1.40;;;;;;;;;;5018891;28;20161;-44
2023/05/18 12:07:59;;;;;;;12.57;2.45;;;;;;;;;;5016751;28;20029;-41
2023/05/18 12:10:24;;;;;;;1.50;1.30;;;;;;;;;;5019882;28;20033;-42
2023/05/18 12:12:53;;;;;;;2.15;1.38;;;;;;;;;;5016612;28;20458;-43
2023/05/18 12:15:23;;;;;;;2.20;1.30;;;;;;;;;;5016717;28;20063;-43
2023/05/18 12:17:50;;;;;;;1.83;1.50;;;;;;;;;;5020832;28;20485;-41
2023/05/18 12:20:17;;;;;;;4.20;1.95;;;;;;;;;;5019252;28;20025;-43
2023/05/18 12:22:53;;;;;;;1.45;1.35;;;;;;;;;;5018366;28;20235;-42
2023/05/18 12:25:25;;;;;;;1.92;1.83;;;;;;;;;;5018984;28;20025;-43
2023/05/18 12:27:52;;;;;;;3.45;1.80;;;;;;;;;;5023518;28;20022;-42
2023/05/18 12:30:19;;;;;;;3.33;1.85;;;;;;;;;;5012695;28;20562;-45
2023/05/18 12:32:47;;;;;;;2.20;1.88;;;;;;;;;;5021841;28;20029;-42
2023/05/18 12:35:13;;;;;;;8.27;4.20;;;;;;;;;;5021127;28;22094;-43
2023/05/18 12:37:45;;;;;;;6.85;5.40;;;;;;;;;;5019441;28;20486;-44
2023/05/18 12:40:13;;;;;;;3.15;2.72;;;;;;;;;;5022560;28;20036;-41
2023/05/18 12:42:38;;;;;;;7.00;3.30;;;;;;;;;;5022361;28;20041;-45
2023/05/18 12:45:04;;;;;;;2.83;2.15;;;;;;;;;;5023551;28;20036;-47
2023/05/18 12:47:32;;;;;;;2.22;2.05;;;;;;;;;;5022315;28;20038;-43
2023/05/18 12:50:01;;;;;;;2.78;2.50;;;;;;;;;;5021867;28;20954;-44
2023/05/18 12:52:27;;;;;;;3.17;1.85;;;;;;;;;;5017819;28;20072;-43
2023/05/18 12:54:59;;;;;;;2.10;2.00;;;;;;;;;;5024750;28;20538;-43
2023/05/18 12:57:29;;;;;;;2.50;1.73;;;;;;;;;;5025589;28;20065;-42
2023/05/18 12:59:59;;;;;;;4.53;1.90;;;;;;;;;;5018678;28;20041;-41
2023/05/18 13:02:37;;;;;;;2.17;1.75;;;;;;;;;;5018259;28;20409;-46
2023/05/18 13:05:09;;;;;;;2.60;1.90;;;;;;;;;;5025693;28;20037;-43
2023/05/18 13:07:36;;;;;;;;;;;;;;;;;;5024592;28;20048;-42
2023/05/18 13:10:06;;;;;;;4.90;2.28;;;;;;;;;;5023368;28;20020;-43
2023/05/18 13:12:39;;;;;;;4.05;1.98;;;;;;;;;;5023127;28;20045;-47
2023/05/18 13:15:22;;;;;;;4.38;3.85;;;;;;;;;;5023527;28;20035;-42
2023/05/18 13:18:02;;;;;;;5.22;3.00;;;;;;;;;;5026315;28;20045;-45
2023/05/18 13:20:31;;;;;;;2.85;1.92;;;;;;;;;;5025080;28;20032;-47
2023/05/18 13:22:58;;;;;;;1.52;1.35;;;;;;;;;;5024539;28;20068;-43
2023/05/18 13:25:25;;;;;;;1.80;1.70;;;;;;;;;;5023282;28;20397;-42
2023/05/18 13:27:53;;;;;;;1.70;1.60;;;;;;;;;;5023424;28;20022;-42
2023/05/18 13:30:19;;;;;;;1.45;1.38;;;;;;;;;;5021172;28;20033;-42
2023/05/18 13:32:45;;;;;;;1.40;1.23;;;;;;;;;;5024376;28;20029;-44
2023/05/18 13:35:12;;;;;;;1.38;1.27;;;;;;;;;;5019147;28;20037;-41
2023/05/18 13:37:37;;;;;;;2.72;1.42;;;;;;;;;;5026126;28;20037;-41
2023/05/18 13:40:03;;;;;;;1.95;1.40;;;;;;;;;;5024692;28;20040;-42
2023/05/18 13:42:29;;;;;;;4.05;1.60;;;;;;;;;;5024131;28;20434;-41
2023/05/18 13:44:54;;;;;;;5.20;1.50;;;;;;;;;;5024627;28;20025;-48
2023/05/18 13:47:20;;;;;;;4.20;2.70;;;;;;;;;;5024808;28;20486;-44
2023/05/18 13:49:45;;;;;;;2.38;1.80;;;;;;;;;;5022592;28;20025;-43
2023/05/18 13:52:10;;;;;;;1.70;1.60;;;;;;;;;;5022007;28;20041;-44
2023/05/18 13:54:36;;;;;;;1.73;1.63;;;;;;;;;;5025066;28;20030;-41
2023/05/18 13:57:02;;;;;;;3.42;2.47;;;;;;;;;;5021149;28;20046;-41
2023/05/18 13:59:27;;;;;;;4.00;2.67;;;;;;;;;;5026612;28;20129;-44
2023/05/18 14:01:53;;;;;;;6.75;2.40;;;;;;;;;;5026036;28;20038;-40
2023/05/18 14:04:18;;;;;;;2.85;2.10;;;;;;;;;;5023215;28;20092;-45
2023/05/18 14:06:44;;;;;;;6.47;3.63;;;;;;;;;;5023725;28;20398;-42
2023/05/18 14:09:10;;;;;;;3.60;2.42;;;;;;;;;;5023627;28;20084;-42
2023/05/18 14:11:37;;;;;;;3.95;2.75;;;;;;;;;;5021785;28;20038;-42
2023/05/18 14:14:02;;;;;;;3.97;2.78;;;;;;;;;;5026643;28;20033;-43
2023/05/18 14:16:28;;;;;;;4.13;3.45;;;;;;;;;;5024482;28;20030;-43
2023/05/18 14:18:54;;;;;;;2.85;1.90;;;;;;;;;;5024059;28;20087;-44
2023/05/18 14:21:19;;;;;;;10.00;7.22;;;;;;;;;;5023686;28;20046;-43
2023/05/18 14:23:46;;;;;;;2.70;2.50;;;;;;;;;;5021966;28;20026;-44
2023/05/18 14:26:12;;;;;;;5.85;3.97;;;;;;;;;;5020902;28;20030;-44
2023/05/18 14:28:37;;;;;;;4.03;3.67;;;;;;;;;;5022137;28;20032;-42
2023/05/18 14:31:03;;;;;;;2.50;1.70;;;;;;;;;;5021299;28;20045;-42
2023/05/18 14:33:28;;;;;;;2.20;2.03;;;;;;;;;;5025811;28;20048;-48
2023/05/18 14:35:55;;;;;;;2.22;1.50;;;;;;;;;;5024510;28;20049;-45
2023/05/18 14:38:25;;;;;;;1.60;1.50;;;;;;;;;;5025007;28;20037;-42
2023/05/18 14:40:51;;;;;;;1.88;1.48;;;;;;;;;;5021473;28;20828;-45
2023/05/18 14:43:16;;;;;;;10.27;1.92;;;;;;;;;;5021562;28;20513;-42